VAM Template | Jonatha

Virtual Airlines Manager! A new look to your va. By: Jonatha Silva




 METAR AND TAF INFORMATION
METAR FOR LICC
ADDS - METARS form results

(2049 UTC 23 April 2019)
Data provider http://aviationweather.gov/metar/data/
 
METAR text: LICC 232020Z 05007KT 5000 BR NSC 17/15 Q1013
Conditions at: LICC (CATANIA/FONTANAR, IT) observed 2020 UTC 23 April 2019
Temperature: 17.0°C (63°F)
Dewpoint: 15.0°C (59°F) [RH = 88%]
Pressure (altimeter): 29.91 inches Hg (1013.0 mb)
Winds: from the NE (50 degrees) at 8 MPH (7 knots; 3.6 m/s)
Visibility: 3 miles ( 5 km)
Ceiling: at least 12,000 feet AGL
Clouds: sky clear below 12,000 feet AGL
Weather: BR  (mist)

METAR text: LICC 231950Z 07007KT 4000 BR NSC 17/16 Q1013
Conditions at: LICC (CATANIA/FONTANAR, IT) observed 1950 UTC 23 April 2019
Temperature: 17.0°C (63°F)
Dewpoint: 16.0°C (61°F) [RH = 94%]
Pressure (altimeter): 29.91 inches Hg (1013.0 mb)
Winds: from the ENE (70 degrees) at 8 MPH (7 knots; 3.6 m/s)
Visibility: 2.49 miles (4.01 km)
Ceiling: at least 12,000 feet AGL
Clouds: sky clear below 12,000 feet AGL
Weather: BR  (mist)

Forecast for: AMD
Text: TAF AMD LICC 231801Z 2318/2418 VRB05KT 3500 BR NSC
Forecast period: 1800 UTC 23 April 2019 to 0400 UTC 24 April 2019
Forecast type: FROM: standard forecast or significant change
Winds: variable direction winds at 6 MPH (5 knots; 2.6 m/s)
Visibility: 2.17 miles (3.49 km)
Ceiling: unknown
Clouds: missing
Weather: BR  (mist)
Text: BECMG 2404/2406 9999
Forecast period: 0400 to 0800 UTC 24 April 2019
Forecast type: BECOMING: Conditions expected to become as follows by 0600 UTC 24 April 2019
Winds: variable direction winds at 6 MPH (5 knots; 2.6 m/s)
Visibility: 6 or more miles 10+ km)
Ceiling: unknown
Clouds: missing
Weather: BR  (mist)
Text: BECMG 2408/2410 07012KT
Forecast period: 0800 to 1800 UTC 24 April 2019
Forecast type: BECOMING: Conditions expected to become as follows by 1000 UTC 24 April 2019
Winds: from the ENE (70 degrees) at 14 MPH (12 knots; 6.2 m/s)
Visibility: 6 or more miles 10+ km)
Ceiling: unknown
Clouds: missing
Weather: BR  (mist)

 AIRPORT MAP

 RUNWAY INFORMATION
Runway 08 Runway length 7989 ft Runway width 148 ft
Runway elevation 37 ft Runway displaced threshold 312 ft Runway heading 84
Runway 26 Runway length 7989 ft Runway width 148 ft
Runway elevation 17 ft Runway displaced threshold 279 ft Runway heading 264

 AIRPORT FREQUENCIES
Type APP Name APP Frequency 119.25 MHZ
Type DIR Name DIRECTOR Frequency 120.8 MHZ
Type GND Name GND Frequency 129.725 MHZ
Type TWR Name TWR Frequency 118.7 MHZ

 AIRPORT NEAR NAVIGATION AIDS
Type NDB Name Catania Frequency 345 KHZ
Type VOR-DME Name Catania Fontanarossa Frequency 116250 KHZ
Type NDB Name Catania Fontanarossa Frequency 407 KHZ